createdAt,value
2019-02-28T00:02:14.785Z,90.020752
2019-02-28T00:07:38.603Z,89.813232
2019-02-28T00:13:01.249Z,90.228271
2019-02-28T00:18:23.982Z,90.167236
2019-02-28T00:23:46.679Z,92.010498
2019-02-28T00:29:10.272Z,93.615723
2019-02-28T00:34:33.093Z,94.799805
2019-02-28T00:39:55.772Z,95.898438
2019-02-28T00:45:18.550Z,95.257568
2019-02-28T00:50:41.477Z,95.568848
2019-02-28T00:56:04.123Z,96.777344
2019-02-28T01:01:26.867Z,97.454834
2019-02-28T01:06:49.565Z,96.166992
2019-02-28T01:12:12.211Z,95.751953
2019-02-28T01:17:35.825Z,94.86084
2019-02-28T01:22:59.300Z,96.252441
2019-02-28T01:28:23.346Z,96.020508
2019-02-28T01:33:43.849Z,95.129395
2019-02-28T01:39:06.656Z,95.379639
2019-02-28T01:44:29.276Z,96.044922
2019-02-28T01:49:51.911Z,96.716309
2019-02-28T01:55:14.568Z,97.119141
2019-02-28T02:00:37.250Z,98.797607
2019-02-28T02:06:00.014Z,98.529053
2019-02-28T02:11:23.244Z,98.217773
2019-02-28T02:16:45.922Z,99.627686
2019-02-28T02:22:26.279Z,98.4375
2019-02-28T02:27:52.766Z,98.22998
2019-02-28T02:33:14.357Z,97.961426
2019-02-28T02:38:39.759Z,99.267578
2019-02-28T02:43:58.106Z,98.187256
2019-02-28T02:49:20.826Z,97.381592
2019-02-28T02:54:43.577Z,98.217773
2019-02-28T03:00:13.245Z,98.309326
2019-02-28T03:05:34.876Z,99.761963
2019-02-28T03:10:53.727Z,99.993896
2019-02-28T03:16:16.488Z,99.993896
2019-02-28T03:21:39.310Z,99.523926
2019-02-28T03:27:03.039Z,99.731445
2019-02-28T03:32:25.677Z,99.151611
2019-02-28T03:37:49.531Z,98.620605
2019-02-28T03:43:12.156Z,99.499512
2019-02-28T03:48:36.168Z,99.993896
2019-02-28T03:53:57.523Z,99.993896
2019-02-28T03:59:20.914Z,99.993896
2019-02-28T04:04:48.383Z,99.993896
2019-02-28T04:10:06.471Z,99.993896
2019-02-28T04:15:30.112Z,99.993896
2019-02-28T04:20:52.781Z,99.993896
2019-02-28T04:26:16.542Z,99.993896
2019-02-28T04:31:39.423Z,99.993896
2019-02-28T04:37:02.129Z,99.993896
2019-02-28T04:42:27.540Z,99.993896
2019-02-28T04:47:51.305Z,99.993896
2019-02-28T04:53:14.059Z,99.993896
2019-02-28T04:58:36.902Z,99.993896
2019-02-28T05:04:02.161Z,99.993896
2019-02-28T05:09:22.362Z,99.993896
2019-02-28T05:14:45.068Z,99.993896
2019-02-28T05:20:10.706Z,99.993896
2019-02-28T05:25:31.176Z,99.993896
2019-02-28T05:30:56.277Z,99.993896
2019-02-28T05:36:20.014Z,99.993896
2019-02-28T05:41:48.912Z,99.993896
2019-02-28T05:47:06.546Z,99.993896
2019-02-28T05:52:30.407Z,99.993896
2019-02-28T05:57:52.872Z,99.993896
2019-02-28T06:03:15.544Z,99.993896
2019-02-28T06:08:39.854Z,99.993896
2019-02-28T06:14:01.698Z,99.993896
2019-02-28T06:19:24.621Z,99.993896
2019-02-28T06:24:47.673Z,99.993896
2019-02-28T06:30:10.323Z,99.993896
2019-02-28T06:35:32.982Z,99.993896
2019-02-28T06:40:56.626Z,99.993896
2019-02-28T06:46:20.447Z,99.993896
2019-02-28T06:51:43.073Z,99.993896
2019-02-28T06:57:06.885Z,99.993896
2019-02-28T07:02:31.403Z,99.993896
2019-02-28T07:07:55.585Z,99.993896
2019-02-28T07:13:18.355Z,99.993896
2019-02-28T07:18:41.115Z,99.993896
2019-02-28T07:24:04.787Z,99.993896
2019-02-28T07:29:27.514Z,99.993896
2019-02-28T07:34:51.670Z,99.993896
2019-02-28T07:40:16.067Z,99.993896
2019-02-28T07:45:36.543Z,99.993896
2019-02-28T07:50:59.363Z,99.993896
2019-02-28T07:56:23.845Z,99.993896
2019-02-28T08:01:44.907Z,99.993896
2019-02-28T08:07:07.831Z,99.993896
2019-02-28T08:12:31.554Z,99.993896
2019-02-28T08:17:54.308Z,99.993896
2019-02-28T08:23:16.979Z,99.993896
2019-02-28T08:28:39.681Z,99.908447
2019-02-28T08:34:02.328Z,98.205566
2019-02-28T08:39:25.003Z,97.540283
2019-02-28T08:44:47.657Z,95.635986
2019-02-28T08:50:11.354Z,93.218994
2019-02-28T08:55:38.249Z,91.583252
2019-02-28T09:00:58.637Z,90.795898
2019-02-28T09:06:22.754Z,88.574219
2019-02-28T09:11:45.363Z,88.513184
2019-02-28T09:17:09.058Z,90.447998
2019-02-28T09:22:32.764Z,86.535645
2019-02-28T09:27:55.540Z,87.384033
2019-02-28T09:33:23.174Z,84.588623
2019-02-28T09:38:45.034Z,82.092285
2019-02-28T09:44:07.037Z,85.620117
2019-02-28T09:49:28.497Z,84.075928
2019-02-28T09:54:51.139Z,83.074951
2019-02-28T10:00:14.735Z,80.230713
2019-02-28T10:05:38.793Z,80.474854
2019-02-28T10:11:00.943Z,81.054688
2019-02-28T10:16:23.553Z,81.665039
2019-02-28T10:21:51.801Z,78.55835
2019-02-28T10:27:09.008Z,78.55835
2019-02-28T10:32:32.704Z,77.801514
2019-02-28T10:37:58.323Z,77.563477
2019-02-28T10:43:19.037Z,78.796387
2019-02-28T10:48:50.392Z,78.55835
2019-02-28T10:54:05.360Z,75.823975
2019-02-28T10:59:28.975Z,75.512695
2019-02-28T11:04:51.668Z,74.591064
2019-02-28T11:10:14.312Z,75.140381
2019-02-28T11:15:36.992Z,76.812744
2019-02-28T11:21:04.060Z,74.493408
2019-02-28T11:26:26.781Z,74.932861
2019-02-28T11:31:50.528Z,76.635742
2019-02-28T11:37:15.713Z,74.383545
2019-02-28T11:42:38.470Z,70.574951
2019-02-28T11:48:01.298Z,69.18335
2019-02-28T11:53:24.013Z,69.458008
2019-02-28T11:58:51.113Z,68.572998
2019-02-28T12:04:09.461Z,66.748047
2019-02-28T12:09:32.088Z,64.84375
2019-02-28T12:14:54.860Z,68.841553
2019-02-28T12:20:18.565Z,69.07959
2019-02-28T12:25:42.715Z,71.905518
2019-02-28T12:31:04.989Z,69.287109
2019-02-28T12:36:27.749Z,70.849609
2019-02-28T12:41:50.267Z,70.849609
2019-02-28T12:47:13.865Z,69.9646
2019-02-28T12:52:36.565Z,71.600342
2019-02-28T12:57:59.197Z,73.028564
2019-02-28T13:03:21.906Z,72.857666
2019-02-28T13:08:44.532Z,70.544434
2019-02-28T13:14:07.188Z,69.696045
2019-02-28T13:19:29.822Z,69.122314
2019-02-28T13:24:52.449Z,65.545654
2019-02-28T13:30:18.531Z,60.894775
2019-02-28T13:35:45.979Z,59.063721
2019-02-28T13:41:03.973Z,57.598877
2019-02-28T13:46:32.186Z,61.273193
2019-02-28T13:51:50.216Z,62.60376
2019-02-28T13:57:12.793Z,62.200928
2019-02-28T14:02:35.384Z,60.168457
2019-02-28T14:07:57.992Z,61.877441
2019-02-28T14:13:21.574Z,61.242676
2019-02-28T14:18:46.105Z,62.023926
2019-02-28T14:24:07.831Z,61.108398
2019-02-28T14:29:30.456Z,62.255859
2019-02-28T14:34:54.075Z,65.911865
2019-02-28T14:40:17.784Z,66.149902
2019-02-28T14:45:42.687Z,69.53125
2019-02-28T14:51:02.243Z,69.494629
2019-02-28T14:56:24.878Z,70.10498
2019-02-28T15:01:49.457Z,69.464111
2019-02-28T15:07:10.091Z,69.873047
2019-02-28T15:12:33.523Z,70.483398
2019-02-28T15:17:56.152Z,70.074463
2019-02-28T15:23:18.801Z,72.210693
2019-02-28T15:28:41.425Z,73.260498
2019-02-28T15:34:05.375Z,73.468018
2019-02-28T15:39:27.347Z,74.11499
2019-02-28T15:44:50.868Z,74.621582
2019-02-28T15:50:16.289Z,74.926758
2019-02-28T15:55:37.290Z,75.543213
2019-02-28T16:01:00.002Z,75.439453
2019-02-28T16:06:22.654Z,76.287842
2019-02-28T16:11:45.385Z,75.67749
2019-02-28T16:17:08.033Z,75.78125
2019-02-28T16:22:30.683Z,75.372314
2019-02-28T16:27:53.884Z,75.067139
2019-02-28T16:33:16.532Z,75.817871
2019-02-28T16:38:42.383Z,76.324463
2019-02-28T16:44:02.803Z,75.915527
2019-02-28T16:49:25.514Z,76.220703
2019-02-28T16:54:48.147Z,76.837158
2019-02-28T17:00:11.786Z,77.789307
2019-02-28T17:05:34.396Z,79.156494
2019-02-28T17:10:57.667Z,80.761719
2019-02-28T17:16:20.937Z,81.92749
2019-02-28T17:21:43.826Z,82.537842
2019-02-28T17:27:07.675Z,83.392334
2019-02-28T17:32:31.190Z,83.496094
2019-02-28T17:37:53.003Z,83.599854
2019-02-28T17:43:16.880Z,84.356689
2019-02-28T17:48:40.536Z,84.14917
2019-02-28T17:54:04.173Z,84.14917
2019-02-28T17:59:26.858Z,84.558105
2019-02-28T18:04:50.485Z,85.626221
2019-02-28T18:10:13.144Z,85.723877
2019-02-28T18:15:36.840Z,85.723877
2019-02-28T18:21:04.108Z,86.383057
2019-02-28T18:26:26.057Z,86.688232
2019-02-28T18:31:48.918Z,87.097168
2019-02-28T18:37:12.937Z,87.304688
2019-02-28T18:42:36.833Z,87.609863
2019-02-28T18:47:59.757Z,87.817383
2019-02-28T18:53:22.425Z,88.330078
2019-02-28T18:58:45.084Z,88.122559
2019-02-28T19:04:07.933Z,88.879395
2019-02-28T19:09:30.699Z,88.879395
2019-02-28T19:14:53.381Z,89.190674
2019-02-28T19:20:16.043Z,89.086914
2019-02-28T19:25:38.664Z,89.294434
2019-02-28T19:31:01.433Z,89.39209
2019-02-28T19:36:24.480Z,90.112305
2019-02-28T19:41:47.265Z,92.980957
2019-02-28T19:47:09.994Z,95.794678
2019-02-28T19:52:32.731Z,96.923828
2019-02-28T19:57:55.456Z,97.894287
2019-02-28T20:03:18.184Z,98.199463
2019-02-28T20:08:40.908Z,98.303223
2019-02-28T20:14:03.594Z,98.712158
2019-02-28T20:19:26.346Z,98.608398
2019-02-28T20:24:49.129Z,98.608398
2019-02-28T20:30:11.862Z,98.962402
2019-02-28T20:35:34.592Z,98.962402
2019-02-28T20:40:57.289Z,98.962402
2019-02-28T20:46:20.081Z,98.760986
2019-02-28T20:51:43.094Z,98.962402
2019-02-28T20:57:06.995Z,98.760986
2019-02-28T21:02:29.792Z,98.199463
2019-02-28T21:07:52.666Z,97.991943
2019-02-28T21:13:17.408Z,98.040771
2019-02-28T21:18:40.684Z,98.144531
2019-02-28T21:24:05.455Z,98.345947
2019-02-28T21:29:28.264Z,98.144531
2019-02-28T21:34:51.010Z,97.833252
2019-02-28T21:40:13.728Z,97.937012
2019-02-28T21:45:36.424Z,98.553467
2019-02-28T21:50:59.317Z,98.760986
2019-02-28T21:56:22.021Z,99.066162
2019-02-28T22:01:44.842Z,99.786377
2019-02-28T22:07:07.565Z,99.993896
2019-02-28T22:12:30.260Z,99.993896
2019-02-28T22:17:52.927Z,99.993896
2019-02-28T22:23:16.179Z,99.993896
2019-02-28T22:28:38.820Z,99.993896
2019-02-28T22:34:01.453Z,99.993896
2019-02-28T22:39:24.208Z,99.993896
2019-02-28T22:44:46.827Z,99.993896
2019-02-28T22:50:09.544Z,99.993896
2019-02-28T22:55:32.254Z,99.993896
2019-02-28T23:00:55.912Z,99.993896
2019-02-28T23:06:19.380Z,99.993896
2019-02-28T23:11:42.067Z,99.993896
2019-02-28T23:17:05.386Z,99.993896
2019-02-28T23:22:28.023Z,99.993896
2019-02-28T23:27:50.683Z,99.993896
2019-02-28T23:33:13.364Z,99.993896
2019-02-28T23:38:35.991Z,99.993896
2019-02-28T23:43:58.610Z,99.993896
2019-02-28T23:49:21.263Z,99.993896
2019-02-28T23:54:43.979Z,99.993896
